^^
Saratoga-Weather Station Historical Data
Daily Summary for June 24, 2020 Units:  Both    English   Metric
Daily Weekly Monthly Yearly Custom
  High: Low: Average:
Temperature: 73.9 °F /  23.3 °C 44.4 °F /  6.9 °C 60.1 °F /  15.6 °C
Dew Point: 49.6 °F /  9.8 °C 39.7 °F /  4.3 °C 42.4 °F /  5.8 °C
Humidity: 86% 32% 56%
Wind Speed: 13mph /  20.9km/h - 2.7mph /  4.4km/h
Wind Gust: 18mph /  29km/h - -
Wind- - West
Pressure: 30 in /  1014.9 hPa 29.8 in /  1009.8 hPa -
Precipitation: 0 in /  0.0 mm    
Historical Graphs
 
 
Tabular Data for June 24, 2020
Time Temperature Dew Point Pressure Wind Wind Speed Wind Gust Humidity Rainfall Rate (Hourly) solar
00:02 53.2 °F /  11.8 °C 41 °F /  5 °C 30in /  1014.9hPa West 0.9mph /  1.4km/h 3mph /  4.8km/h 63% 0in /  0.0mm 0 W/m2
00:07 53.2 °F /  11.8 °C 41.4 °F /  5.2 °C 30in /  1014.9hPa Calm   2mph /  3.2km/h 64% 0in /  0.0mm 0 W/m2
00:12 52.9 °F /  11.6 °C 41 °F /  5 °C 30in /  1014.9hPa Calm   3mph /  4.8km/h 64% 0in /  0.0mm 0 W/m2
00:17 52.5 °F /  11.4 °C 41.2 °F /  5.1 °C 30in /  1014.9hPa Calm   2mph /  3.2km/h 65% 0in /  0.0mm 0 W/m2
00:22 52.5 °F /  11.4 °C 41.5 °F /  5.3 °C 30in /  1014.9hPa Calm   1mph /  1.6km/h 66% 0in /  0.0mm 0 W/m2
00:27 52.3 °F /  11.3 °C 41.4 °F /  5.2 °C 30in /  1014.9hPa West 0.9mph /  1.4km/h 2mph /  3.2km/h 66% 0in /  0.0mm 0 W/m2
00:32 52.2 °F /  11.2 °C 41.2 °F /  5.1 °C 30in /  1014.9hPa Calm   1mph /  1.6km/h 66% 0in /  0.0mm 0 W/m2
00:37 52 °F /  11.1 °C 41.4 °F /  5.2 °C 30in /  1014.6hPa West 0.9mph /  1.4km/h 1mph /  1.6km/h 67% 0in /  0.0mm 0 W/m2
00:42 51.6 °F /  10.9 °C 41 °F /  5 °C 30in /  1014.6hPa Calm     67% 0in /  0.0mm 0 W/m2
00:47 51.4 °F /  10.8 °C 41.2 °F /  5.1 °C 30in /  1014.6hPa Calm   1mph /  1.6km/h 68% 0in /  0.0mm 0 W/m2
00:52 51.3 °F /  10.7 °C 41.4 °F /  5.2 °C 30in /  1014.6hPa Calm     69% 0in /  0.0mm 0 W/m2
00:57 51.1 °F /  10.6 °C 41.2 °F /  5.1 °C 30in /  1014.6hPa Calm     69% 0in /  0.0mm 0 W/m2
01:02 50.9 °F /  10.5 °C 41.5 °F /  5.3 °C 30in /  1014.6hPa Calm     70% 0in /  0.0mm 0 W/m2
01:07 50.7 °F /  10.4 °C 41.4 °F /  5.2 °C 30in /  1014.6hPa Calm   1mph /  1.6km/h 70% 0in /  0.0mm 0 W/m2
01:13 50.5 °F /  10.3 °C 41.5 °F /  5.3 °C 30in /  1014.6hPa Calm     71% 0in /  0.0mm 0 W/m2
01:18 50.4 °F /  10.2 °C 41.4 °F /  5.2 °C 30in /  1014.6hPa Calm     71% 0in /  0.0mm 0 W/m2
01:23 50.2 °F /  10.1 °C 41.2 °F /  5.1 °C 30in /  1014.6hPa Calm     71% 0in /  0.0mm 0 W/m2
01:28 50 °F /  10 °C 41.4 °F /  5.2 °C 30in /  1014.6hPa Calm     72% 0in /  0.0mm 0 W/m2
01:33 49.6 °F /  9.8 °C 41 °F /  5 °C 30in /  1014.6hPa Calm     72% 0in /  0.0mm 0 W/m2
01:38 49.5 °F /  9.7 °C 41.2 °F /  5.1 °C 30in /  1014.6hPa Calm     73% 0in /  0.0mm 0 W/m2
01:43 49.3 °F /  9.6 °C 41.4 °F /  5.2 °C 30in /  1014.6hPa Calm     74% 0in /  0.0mm 0 W/m2
01:48 48.9 °F /  9.4 °C 41 °F /  5 °C 30in /  1014.2hPa Calm     74% 0in /  0.0mm 0 W/m2
01:53 48.9 °F /  9.4 °C 41.4 °F /  5.2 °C 30in /  1014.2hPa Calm     75% 0in /  0.0mm 0 W/m2
01:58 48.7 °F /  9.3 °C 41.2 °F /  5.1 °C 30in /  1014.2hPa Calm     75% 0in /  0.0mm 0 W/m2
02:03 48.7 °F /  9.3 °C 41.5 °F /  5.3 °C 30in /  1014.2hPa Calm     76% 0in /  0.0mm 0 W/m2
02:08 48.6 °F /  9.2 °C 41.4 °F /  5.2 °C 30in /  1014.2hPa Calm     76% 0in /  0.0mm 0 W/m2
02:13 48.4 °F /  9.1 °C 41.2 °F /  5.1 °C 30in /  1014.2hPa Calm     76% 0in /  0.0mm 0 W/m2
02:18 48 °F /  8.9 °C 41.2 °F /  5.1 °C 30in /  1014.2hPa Calm     77% 0in /  0.0mm 0 W/m2
02:23 48.2 °F /  9 °C 41.4 °F /  5.2 °C 30in /  1014.2hPa Calm     77% 0in /  0.0mm 0 W/m2
02:28 48.4 °F /  9.1 °C 41.5 °F /  5.3 °C 30in /  1014.2hPa Calm     77% 0in /  0.0mm 0 W/m2
02:33 48.4 °F /  9.1 °C 41.5 °F /  5.3 °C 30in /  1014.2hPa Calm   1mph /  1.6km/h 77% 0in /  0.0mm 0 W/m2
02:38 48.4 °F /  9.1 °C 41.5 °F /  5.3 °C 30in /  1014.2hPa Calm     77% 0in /  0.0mm 0 W/m2
02:43 48.4 °F /  9.1 °C 41.5 °F /  5.3 °C 30in /  1014.2hPa Calm     77% 0in /  0.0mm 0 W/m2
02:48 48.4 °F /  9.1 °C 41.5 °F /  5.3 °C 30in /  1014.2hPa Calm     77% 0in /  0.0mm 0 W/m2
02:54 48.2 °F /  9 °C 41.4 °F /  5.2 °C 30in /  1014.2hPa Calm     77% 0in /  0.0mm 0 W/m2
02:59 48 °F /  8.9 °C 41.2 °F /  5.1 °C 30in /  1014.2hPa Calm     77% 0in /  0.0mm 0 W/m2
03:04 47.8 °F /  8.8 °C 41.4 °F /  5.2 °C 29.9in /  1013.9hPa West 0.9mph /  1.4km/h 1mph /  1.6km/h 78% 0in /  0.0mm 0 W/m2
03:09 47.7 °F /  8.7 °C 41.2 °F /  5.1 °C 29.9in /  1013.9hPa West 0.9mph /  1.4km/h 2mph /  3.2km/h 78% 0in /  0.0mm 0 W/m2
03:14 47.7 °F /  8.7 °C 41.5 °F /  5.3 °C 29.9in /  1013.9hPa West 0.9mph /  1.4km/h 1mph /  1.6km/h 79% 0in /  0.0mm 0 W/m2
03:19 47.5 °F /  8.6 °C 41.4 °F /  5.2 °C 29.9in /  1013.9hPa Calm     79% 0in /  0.0mm 0 W/m2
03:24 47.5 °F /  8.6 °C 41.4 °F /  5.2 °C 29.9in /  1013.9hPa West 1mph /  1.6km/h 1mph /  1.6km/h 79% 0in /  0.0mm 0 W/m2
03:29 47.1 °F /  8.4 °C 41 °F /  5 °C 29.9in /  1013.9hPa Calm     79% 0in /  0.0mm 0 W/m2
03:34 47.1 °F /  8.4 °C 41 °F /  5 °C 29.9in /  1013.5hPa Calm     79% 0in /  0.0mm 0 W/m2
03:39 46.9 °F /  8.3 °C 40.8 °F /  4.9 °C 29.9in /  1013.5hPa Calm     79% 0in /  0.0mm 0 W/m2
03:44 46.9 °F /  8.3 °C 40.8 °F /  4.9 °C 29.9in /  1013.5hPa Calm     79% 0in /  0.0mm 0 W/m2
03:49 46.8 °F /  8.2 °C 40.6 °F /  4.8 °C 29.9in /  1013.5hPa Calm     79% 0in /  0.0mm 0 W/m2
03:54 46.6 °F /  8.1 °C 40.5 °F /  4.7 °C 29.9in /  1013.5hPa Calm     79% 0in /  0.0mm 0 W/m2
03:59 46.4 °F /  8 °C 40.6 °F /  4.8 °C 29.9in /  1013.5hPa Calm     80% 0in /  0.0mm 0 W/m2
04:04 46 °F /  7.8 °C 40.3 °F /  4.6 °C 29.9in /  1013.5hPa Calm     80% 0in /  0.0mm 0 W/m2
04:09 46 °F /  7.8 °C 40.3 °F /  4.6 °C 29.9in /  1013.5hPa Calm     80% 0in /  0.0mm 0 W/m2
04:14 45.9 °F /  7.7 °C 40.3 °F /  4.6 °C 29.9in /  1013.5hPa Calm     81% 0in /  0.0mm 0 W/m2
04:19 45.9 °F /  7.7 °C 40.3 °F /  4.6 °C 29.9in /  1013.5hPa Calm     81% 0in /  0.0mm 0 W/m2
04:24 45.7 °F /  7.6 °C 40.5 °F /  4.7 °C 29.9in /  1013.5hPa Calm     82% 0in /  0.0mm 0 W/m2
04:29 45.7 °F /  7.6 °C 40.5 °F /  4.7 °C 29.9in /  1013.5hPa Calm     82% 0in /  0.0mm 0 W/m2
04:35 45.7 °F /  7.6 °C 40.8 °F /  4.9 °C 29.9in /  1013.5hPa West 0.9mph /  1.4km/h 1mph /  1.6km/h 83% 0in /  0.0mm 0 W/m2
04:40 45.7 °F /  7.6 °C 40.5 °F /  4.7 °C 29.9in /  1013.5hPa Calm     82% 0in /  0.0mm 0 W/m2
04:45 45.7 °F /  7.6 °C 40.5 °F /  4.7 °C 29.9in /  1013.5hPa Calm     82% 0in /  0.0mm 0 W/m2
04:50 45.7 °F /  7.6 °C 40.5 °F /  4.7 °C 29.9in /  1013.5hPa Calm     82% 0in /  0.0mm 0 W/m2
04:55 45.7 °F /  7.6 °C 40.5 °F /  4.7 °C 29.9in /  1013.5hPa Calm   1mph /  1.6km/h 82% 0in /  0.0mm 0 W/m2
05:00 45.7 °F /  7.6 °C 40.5 °F /  4.7 °C 29.9in /  1013.5hPa Calm   1mph /  1.6km/h 82% 0in /  0.0mm 0 W/m2
05:05 45.5 °F /  7.5 °C 40.6 °F /  4.8 °C 29.9in /  1013.5hPa Calm     83% 0in /  0.0mm 0 W/m2
05:10 45.7 °F /  7.6 °C 40.5 °F /  4.7 °C 29.9in /  1013.5hPa Calm   1mph /  1.6km/h 82% 0in /  0.0mm 0 W/m2
05:15 45.7 °F /  7.6 °C 40.5 °F /  4.7 °C 29.9in /  1013.5hPa Calm   1mph /  1.6km/h 82% 0in /  0.0mm 0 W/m2
05:20 45.5 °F /  7.5 °C 40.3 °F /  4.6 °C 29.9in /  1013.5hPa Calm     82% 0in /  0.0mm 0 W/m2
05:25 45.3 °F /  7.4 °C 40.1 °F /  4.5 °C 29.9in /  1013.5hPa Calm     82% 0in /  0.0mm 0 W/m2
05:30 45.3 °F /  7.4 °C 40.1 °F /  4.5 °C 29.9in /  1013.2hPa Calm     82% 0in /  0.0mm 0 W/m2
05:35 45.1 °F /  7.3 °C 40.3 °F /  4.6 °C 29.9in /  1013.2hPa West 0.9mph /  1.4km/h 3mph /  4.8km/h 83% 0in /  0.0mm 0 W/m2
05:40 45.1 °F /  7.3 °C 40.3 °F /  4.6 °C 29.9in /  1013.2hPa Calm   1mph /  1.6km/h 83% 0in /  0.0mm 0 W/m2
05:45 45.1 °F /  7.3 °C 40.3 °F /  4.6 °C 29.9in /  1013.2hPa Calm   3mph /  4.8km/h 83% 0in /  0.0mm 0 W/m2
05:50 45 °F /  7.2 °C 39.7 °F /  4.3 °C 29.9in /  1012.9hPa West 2mph /  3.2km/h 2mph /  3.2km/h 82% 0in /  0.0mm 0 W/m2
05:55 45 °F /  7.2 °C 40.1 °F /  4.5 °C 29.9in /  1012.9hPa Calm   1mph /  1.6km/h 83% 0in /  0.0mm 0 W/m2
06:00 44.8 °F /  7.1 °C 39.9 °F /  4.4 °C 29.9in /  1012.9hPa West 0.9mph /  1.4km/h 1mph /  1.6km/h 83% 0in /  0.0mm 0 W/m2
06:05 44.8 °F /  7.1 °C 39.9 °F /  4.4 °C 29.9in /  1012.9hPa Calm   1mph /  1.6km/h 83% 0in /  0.0mm 0 W/m2
06:10 44.8 °F /  7.1 °C 40.3 °F /  4.6 °C 29.9in /  1012.9hPa Calm     84% 0in /  0.0mm 0 W/m2
06:15 44.8 °F /  7.1 °C 40.3 °F /  4.6 °C 29.9in /  1012.9hPa West 0.9mph /  1.4km/h 1mph /  1.6km/h 84% 0in /  0.0mm 0 W/m2
06:20 44.8 °F /  7.1 °C 40.3 °F /  4.6 °C 29.9in /  1012.9hPa Calm   1mph /  1.6km/h 84% 0in /  0.0mm 0 W/m2
06:25 44.8 °F /  7.1 °C 40.3 °F /  4.6 °C 29.9in /  1012.9hPa Calm     84% 0in /  0.0mm 0 W/m2
06:30 44.8 °F /  7.1 °C 40.3 °F /  4.6 °C 29.9in /  1012.9hPa Calm     84% 0in /  0.0mm 5 W/m2
06:35 44.8 °F /  7.1 °C 40.3 °F /  4.6 °C 29.9in /  1013.2hPa Calm     84% 0in /  0.0mm 7 W/m2
06:40 44.6 °F /  7 °C 40.1 °F /  4.5 °C 29.9in /  1013.2hPa Calm     84% 0in /  0.0mm 9 W/m2
06:45 44.4 °F /  6.9 °C 39.9 °F /  4.4 °C 29.9in /  1013.2hPa Calm     84% 0in /  0.0mm 12 W/m2
06:50 44.4 °F /  6.9 °C 39.9 °F /  4.4 °C 29.9in /  1013.2hPa Calm     84% 0in /  0.0mm 14 W/m2
06:55 44.6 °F /  7 °C 40.5 °F /  4.7 °C 29.9in /  1013.2hPa Calm     85% 0in /  0.0mm 16 W/m2
07:00 44.8 °F /  7.1 °C 40.5 °F /  4.7 °C 29.9in /  1013.2hPa Calm     85% 0in /  0.0mm 19 W/m2
07:05 44.8 °F /  7.1 °C 40.5 °F /  4.7 °C 29.9in /  1013.2hPa Calm     85% 0in /  0.0mm 23 W/m2
07:10 44.8 °F /  7.1 °C 40.5 °F /  4.7 °C 29.9in /  1013.2hPa Calm     85% 0in /  0.0mm 26 W/m2
07:15 44.8 °F /  7.1 °C 40.5 °F /  4.7 °C 29.9in /  1013.2hPa Calm     85% 0in /  0.0mm 33 W/m2
07:20 44.8 °F /  7.1 °C 40.5 °F /  4.7 °C 29.9in /  1013.2hPa Calm     85% 0in /  0.0mm 40 W/m2
07:25 44.8 °F /  7.1 °C 40.5 °F /  4.7 °C 29.9in /  1013.2hPa Calm     85% 0in /  0.0mm 49 W/m2
07:30 45 °F /  7.2 °C 40.6 °F /  4.8 °C 29.9in /  1013.2hPa Calm     85% 0in /  0.0mm 60 W/m2
07:35 45.1 °F /  7.3 °C 41.2 °F /  5.1 °C 29.9in /  1013.2hPa Calm     86% 0in /  0.0mm 74 W/m2
07:40 45.5 °F /  7.5 °C 41.5 °F /  5.3 °C 29.9in /  1013.5hPa Calm     86% 0in /  0.0mm 91 W/m2
07:45 45.9 °F /  7.7 °C 41.5 °F /  5.3 °C 29.9in /  1013.5hPa Calm     85% 0in /  0.0mm 105 W/m2
07:50 46.2 °F /  7.9 °C 41.7 °F /  5.4 °C 29.9in /  1013.5hPa Calm     84% 0in /  0.0mm 104 W/m2
07:55 46.8 °F /  8.2 °C 42.3 °F /  5.7 °C 29.9in /  1013.5hPa Calm     84% 0in /  0.0mm 139 W/m2
08:00 47.1 °F /  8.4 °C 42.3 °F /  5.7 °C 29.9in /  1013.5hPa Calm     83% 0in /  0.0mm 155 W/m2
08:05 48 °F /  8.9 °C 42.8 °F /  6 °C 29.9in /  1013.5hPa Calm     82% 0in /  0.0mm 139 W/m2
08:10 48.6 °F /  9.2 °C 43 °F /  6.1 °C 29.9in /  1013.5hPa Calm     81% 0in /  0.0mm 127 W/m2
08:15 48.9 °F /  9.4 °C 43.3 °F /  6.3 °C 29.9in /  1013.5hPa NW 0.9mph /  1.4km/h 2mph /  3.2km/h 81% 0in /  0.0mm 104 W/m2
08:21 49.3 °F /  9.6 °C 43.3 °F /  6.3 °C 29.9in /  1013.5hPa ENE 0.9mph /  1.4km/h 1mph /  1.6km/h 80% 0in /  0.0mm 149 W/m2
08:26 49.6 °F /  9.8 °C 43.7 °F /  6.5 °C 29.9in /  1013.5hPa ENE 0.9mph /  1.4km/h 1mph /  1.6km/h 80% 0in /  0.0mm 179 W/m2
08:31 49.8 °F /  9.9 °C 43.9 °F /  6.6 °C 29.9in /  1013.5hPa ENE 0.9mph /  1.4km/h 2mph /  3.2km/h 80% 0in /  0.0mm 183 W/m2
08:36 50 °F /  10 °C 43.7 °F /  6.5 °C 29.9in /  1013.5hPa Calm   3mph /  4.8km/h 79% 0in /  0.0mm 199 W/m2
08:41 50.2 °F /  10.1 °C 43.9 °F /  6.6 °C 29.9in /  1013.5hPa East 0.9mph /  1.4km/h 1mph /  1.6km/h 79% 0in /  0.0mm 248 W/m2
08:46 50.4 °F /  10.2 °C 44.4 °F /  6.9 °C 29.9in /  1013.5hPa Calm   3mph /  4.8km/h 80% 0in /  0.0mm 276 W/m2
08:51 50.7 °F /  10.4 °C 44.4 °F /  6.9 °C 29.9in /  1013.5hPa Calm   2mph /  3.2km/h 79% 0in /  0.0mm 234 W/m2
08:56 51.3 °F /  10.7 °C 45 °F /  7.2 °C 29.9in /  1013.5hPa Calm   1mph /  1.6km/h 79% 0in /  0.0mm 253 W/m2
09:01 51.6 °F /  10.9 °C 45.3 °F /  7.4 °C 29.9in /  1013.5hPa Calm   1mph /  1.6km/h 79% 0in /  0.0mm 309 W/m2
09:06 52.2 °F /  11.2 °C 45.1 °F /  7.3 °C 29.9in /  1013.5hPa Calm   1mph /  1.6km/h 77% 0in /  0.0mm 318 W/m2
09:11 52.5 °F /  11.4 °C 45.5 °F /  7.5 °C 29.9in /  1013.5hPa East 0.9mph /  1.4km/h 1mph /  1.6km/h 77% 0in /  0.0mm 343 W/m2
09:16 53.2 °F /  11.8 °C 45.9 °F /  7.7 °C 29.9in /  1013.5hPa NE 2mph /  3.2km/h 2mph /  3.2km/h 76% 0in /  0.0mm 359 W/m2
09:21 53.8 °F /  12.1 °C 46 °F /  7.8 °C 29.9in /  1013.5hPa Calm   1mph /  1.6km/h 75% 0in /  0.0mm 371 W/m2
09:26 54.1 °F /  12.3 °C 46.4 °F /  8 °C 29.9in /  1013.5hPa Calm     75% 0in /  0.0mm 371 W/m2
09:31 55 °F /  12.8 °C 46.9 °F /  8.3 °C 29.9in /  1013.5hPa Calm   1mph /  1.6km/h 74% 0in /  0.0mm 390 W/m2
09:36 55.8 °F /  13.2 °C 47.3 °F /  8.5 °C 29.9in /  1013.5hPa ENE 2mph /  3.2km/h 2mph /  3.2km/h 73% 0in /  0.0mm 399 W/m2
09:41 56.8 °F /  13.8 °C 47.8 °F /  8.8 °C 29.9in /  1013.5hPa Calm   1mph /  1.6km/h 72% 0in /  0.0mm 438 W/m2
09:46 57.7 °F /  14.3 °C 47.7 °F /  8.7 °C 29.9in /  1013.5hPa East 2mph /  3.2km/h 3mph /  4.8km/h 69% 0in /  0.0mm 438 W/m2
09:51 58.5 °F /  14.7 °C 48 °F /  8.9 °C 29.9in /  1013.5hPa Calm   2mph /  3.2km/h 68% 0in /  0.0mm 432 W/m2
09:56 59.2 °F /  15.1 °C 48.6 °F /  9.2 °C 29.9in /  1013.5hPa ENE 0.9mph /  1.4km/h 2mph /  3.2km/h 68% 0in /  0.0mm 123 W/m2
10:01 60.1 °F /  15.6 °C 49.1 °F /  9.5 °C 29.9in /  1013.5hPa Calm   2mph /  3.2km/h 67% 0in /  0.0mm 489 W/m2
10:06 61.3 °F /  16.3 °C 49.1 °F /  9.5 °C 29.9in /  1013.5hPa Calm   2mph /  3.2km/h 64% 0in /  0.0mm 529 W/m2
10:12 62.6 °F /  17 °C 49.5 °F /  9.7 °C 29.9in /  1013.5hPa Calm   2mph /  3.2km/h 62% 0in /  0.0mm 519 W/m2
10:17 63.7 °F /  17.6 °C 49.5 °F /  9.7 °C 29.9in /  1013.5hPa East 2.9mph /  4.7km/h 3mph /  4.8km/h 60% 0in /  0.0mm 489 W/m2
10:22 64.6 °F /  18.1 °C 49.5 °F /  9.7 °C 29.9in /  1013.5hPa ESE 2mph /  3.2km/h 2mph /  3.2km/h 58% 0in /  0.0mm 504 W/m2
10:27 64.9 °F /  18.3 °C 48.9 °F /  9.4 °C 29.9in /  1013.5hPa ESE 0.9mph /  1.4km/h 2mph /  3.2km/h 56% 0in /  0.0mm 504 W/m2
10:32 65.5 °F /  18.6 °C 49.3 °F /  9.6 °C 29.9in /  1013.5hPa Calm   1mph /  1.6km/h 56% 0in /  0.0mm 519 W/m2
10:37 66.4 °F /  19.1 °C 49.6 °F /  9.8 °C 29.9in /  1013.5hPa ESE 2mph /  3.2km/h 2mph /  3.2km/h 55% 0in /  0.0mm 591 W/m2
10:42 67.3 °F /  19.6 °C 48.6 °F /  9.2 °C 29.9in /  1013.5hPa WNW 4mph /  6.4km/h 5mph /  8km/h 51% 0in /  0.0mm 577 W/m2
10:47 67.5 °F /  19.7 °C 46.6 °F /  8.1 °C 29.9in /  1013.5hPa SW 4.9mph /  7.9km/h 9mph /  14.5km/h 47% 0in /  0.0mm 531 W/m2
10:52 67.3 °F /  19.6 °C 46.4 °F /  8 °C 29.9in /  1013.5hPa WNW 2.9mph /  4.7km/h 7mph /  11.3km/h 47% 0in /  0.0mm 571 W/m2
10:57 67.3 °F /  19.6 °C 46.4 °F /  8 °C 29.9in /  1013.5hPa West 2.9mph /  4.7km/h 9mph /  14.5km/h 47% 0in /  0.0mm 591 W/m2
11:02 67.3 °F /  19.6 °C 45.9 °F /  7.7 °C 29.9in /  1013.2hPa West 4mph /  6.4km/h 7mph /  11.3km/h 46% 0in /  0.0mm 624 W/m2
11:07 67.5 °F /  19.7 °C 44.8 °F /  7.1 °C 29.9in /  1013.2hPa West 2.9mph /  4.7km/h 7mph /  11.3km/h 44% 0in /  0.0mm 645 W/m2
11:12 67.5 °F /  19.7 °C 45.3 °F /  7.4 °C 29.9in /  1013.2hPa West 2mph /  3.2km/h 3mph /  4.8km/h 45% 0in /  0.0mm 652 W/m2
11:17 67.8 °F /  19.9 °C 45.7 °F /  7.6 °C 29.9in /  1013.2hPa WSW 4.9mph /  7.9km/h 5mph /  8km/h 45% 0in /  0.0mm 663 W/m2
11:22 68 °F /  20 °C 45.9 °F /  7.7 °C 29.9in /  1013.2hPa NW 4.9mph /  7.9km/h 5mph /  8km/h 45% 0in /  0.0mm 698 W/m2
11:27 68.2 °F /  20.1 °C 46.6 °F /  8.1 °C 29.9in /  1013.2hPa West 6.9mph /  11.1km/h 9mph /  14.5km/h 46% 0in /  0.0mm 714 W/m2
11:32 68.5 °F /  20.3 °C 42.6 °F /  5.9 °C 29.9in /  1013.2hPa West 8.1mph /  13km/h 10mph /  16.1km/h 39% 0in /  0.0mm 589 W/m2
11:37 68.7 °F /  20.4 °C 42.8 °F /  6 °C 29.9in /  1013.2hPa WNW 6.9mph /  11.1km/h 7mph /  11.3km/h 39% 0in /  0.0mm 348 W/m2
11:42 68.7 °F /  20.4 °C 42.1 °F /  5.6 °C 29.9in /  1013.2hPa NW 4.9mph /  7.9km/h 10mph /  16.1km/h 38% 0in /  0.0mm 425 W/m2
11:47 68.5 °F /  20.3 °C 43.3 °F /  6.3 °C 29.9in /  1013.2hPa West 4mph /  6.4km/h 7mph /  11.3km/h 40% 0in /  0.0mm 680 W/m2
11:52 68.9 °F /  20.5 °C 43 °F /  6.1 °C 29.9in /  1013.2hPa WNW 6.9mph /  11.1km/h 7mph /  11.3km/h 39% 0in /  0.0mm 708 W/m2
11:57 69.4 °F /  20.8 °C 42.1 °F /  5.6 °C 29.9in /  1013.2hPa WNW 2mph /  3.2km/h 3mph /  4.8km/h 37% 0in /  0.0mm 679 W/m2
12:02 69.6 °F /  20.9 °C 41.5 °F /  5.3 °C 29.9in /  1013.2hPa WNW 2.9mph /  4.7km/h 10mph /  16.1km/h 36% 0in /  0.0mm 691 W/m2
12:07 69.6 °F /  20.9 °C 41.5 °F /  5.3 °C 29.9in /  1013.2hPa WSW 4mph /  6.4km/h 9mph /  14.5km/h 36% 0in /  0.0mm 715 W/m2
12:12 70 °F /  21.1 °C 41 °F /  5 °C 29.9in /  1013.2hPa SW 4mph /  6.4km/h 8mph /  12.9km/h 35% 0in /  0.0mm 738 W/m2
12:17 70.2 °F /  21.2 °C 41.9 °F /  5.5 °C 29.9in /  1013.2hPa NW 8.9mph /  14.3km/h 12mph /  19.3km/h 36% 0in /  0.0mm 754 W/m2
12:22 70.2 °F /  21.2 °C 41.9 °F /  5.5 °C 29.9in /  1012.9hPa SW 4.9mph /  7.9km/h 13mph /  20.9km/h 36% 0in /  0.0mm 758 W/m2
12:27 70.2 °F /  21.2 °C 41.9 °F /  5.5 °C 29.9in /  1012.9hPa NW 8.1mph /  13km/h 12mph /  19.3km/h 36% 0in /  0.0mm 763 W/m2
12:32 70.3 °F /  21.3 °C 42.8 °F /  6 °C 29.9in /  1012.9hPa NW 6mph /  9.7km/h 10mph /  16.1km/h 37% 0in /  0.0mm 777 W/m2
12:37 70.7 °F /  21.5 °C 43.2 °F /  6.2 °C 29.9in /  1012.9hPa WNW 8.1mph /  13km/h 9mph /  14.5km/h 37% 0in /  0.0mm 798 W/m2
12:42 70.9 °F /  21.6 °C 42.6 °F /  5.9 °C 29.9in /  1012.9hPa NW 4mph /  6.4km/h 10mph /  16.1km/h 36% 0in /  0.0mm 802 W/m2
12:47 70.7 °F /  21.5 °C 43.2 °F /  6.2 °C 29.9in /  1012.5hPa NNW 8.9mph /  14.3km/h 11mph /  17.7km/h 37% 0in /  0.0mm 823 W/m2
12:52 70.7 °F /  21.5 °C 42.4 °F /  5.8 °C 29.9in /  1012.9hPa SW 6mph /  9.7km/h 11mph /  17.7km/h 36% 0in /  0.0mm 512 W/m2
12:57 70.5 °F /  21.4 °C 43 °F /  6.1 °C 29.9in /  1012.5hPa WNW 8.9mph /  14.3km/h 10mph /  16.1km/h 37% 0in /  0.0mm 693 W/m2
13:02 70.5 °F /  21.4 °C 43 °F /  6.1 °C 29.9in /  1012.5hPa WNW 6mph /  9.7km/h 6mph /  9.7km/h 37% 0in /  0.0mm 793 W/m2
13:07 70.9 °F /  21.6 °C 41.9 °F /  5.5 °C 29.9in /  1012.5hPa West 6mph /  9.7km/h 12mph /  19.3km/h 35% 0in /  0.0mm 812 W/m2
13:12 71.1 °F /  21.7 °C 42.1 °F /  5.6 °C 29.9in /  1012.5hPa NNW 4.9mph /  7.9km/h 8mph /  12.9km/h 35% 0in /  0.0mm 717 W/m2
13:17 71.2 °F /  21.8 °C 42.3 °F /  5.7 °C 29.9in /  1012.5hPa West 6mph /  9.7km/h 13mph /  20.9km/h 35% 0in /  0.0mm 861 W/m2
13:22 71.2 °F /  21.8 °C 41.4 °F /  5.2 °C 29.9in /  1012.2hPa NW 6.9mph /  11.1km/h 11mph /  17.7km/h 34% 0in /  0.0mm 853 W/m2
13:27 71.2 °F /  21.8 °C 41.4 °F /  5.2 °C 29.9in /  1012.5hPa WNW 8.1mph /  13km/h 15mph /  24.1km/h 34% 0in /  0.0mm 838 W/m2
13:32 71.4 °F /  21.9 °C 41.5 °F /  5.3 °C 29.9in /  1012.5hPa WNW 6.9mph /  11.1km/h 14mph /  22.5km/h 34% 0in /  0.0mm 527 W/m2
13:37 71.2 °F /  21.8 °C 43 °F /  6.1 °C 29.9in /  1012.2hPa West 8.9mph /  14.3km/h 15mph /  24.1km/h 36% 0in /  0.0mm 893 W/m2
13:42 71.6 °F /  22 °C 42.4 °F /  5.8 °C 29.9in /  1012.2hPa West 6.9mph /  11.1km/h 12mph /  19.3km/h 35% 0in /  0.0mm 851 W/m2
13:47 71.8 °F /  22.1 °C 42.6 °F /  5.9 °C 29.9in /  1012.2hPa West 6.9mph /  11.1km/h 14mph /  22.5km/h 35% 0in /  0.0mm 800 W/m2
13:52 71.8 °F /  22.1 °C 41.9 °F /  5.5 °C 29.9in /  1012.2hPa West 6mph /  9.7km/h 18mph /  29km/h 34% 0in /  0.0mm 891 W/m2
13:57 71.6 °F /  22 °C 41.7 °F /  5.4 °C 29.9in /  1011.9hPa West 8.9mph /  14.3km/h 14mph /  22.5km/h 34% 0in /  0.0mm 594 W/m2
14:02 71.2 °F /  21.8 °C 42.3 °F /  5.7 °C 29.9in /  1011.9hPa WNW 8.1mph /  13km/h 18mph /  29km/h 35% 0in /  0.0mm 352 W/m2
14:07 71.1 °F /  21.7 °C 41.4 °F /  5.2 °C 29.9in /  1011.9hPa NW 4.9mph /  7.9km/h 11mph /  17.7km/h 34% 0in /  0.0mm 237 W/m2
14:12 70.9 °F /  21.6 °C 41.9 °F /  5.5 °C 29.9in /  1011.9hPa West 13mph /  20.9km/h 13mph /  20.9km/h 35% 0in /  0.0mm 202 W/m2
14:17 70.3 °F /  21.3 °C 41.4 °F /  5.2 °C 29.9in /  1011.9hPa WSW 4mph /  6.4km/h 13mph /  20.9km/h 35% 0in /  0.0mm 207 W/m2
14:22 70.3 °F /  21.3 °C 42.1 °F /  5.6 °C 29.9in /  1011.9hPa WSW 8.1mph /  13km/h 14mph /  22.5km/h 36% 0in /  0.0mm 397 W/m2
14:27 70.5 °F /  21.4 °C 42.3 °F /  5.7 °C 29.9in /  1011.9hPa NW 4mph /  6.4km/h 8mph /  12.9km/h 36% 0in /  0.0mm 308 W/m2
14:32 70.3 °F /  21.3 °C 42.8 °F /  6 °C 29.9in /  1011.9hPa WSW 8.1mph /  13km/h 14mph /  22.5km/h 37% 0in /  0.0mm 251 W/m2
14:37 70.2 °F /  21.2 °C 43.3 °F /  6.3 °C 29.9in /  1011.9hPa West 2.9mph /  4.7km/h 8mph /  12.9km/h 38% 0in /  0.0mm 274 W/m2
14:42 70.2 °F /  21.2 °C 42.6 °F /  5.9 °C 29.9in /  1011.9hPa WSW 12mph /  19.3km/h 12mph /  19.3km/h 37% 0in /  0.0mm 366 W/m2
14:47 70.3 °F /  21.3 °C 43.5 °F /  6.4 °C 29.9in /  1011.9hPa West 2.9mph /  4.7km/h 7mph /  11.3km/h 38% 0in /  0.0mm 550 W/m2
14:52 71.2 °F /  21.8 °C 43 °F /  6.1 °C 29.9in /  1011.9hPa West 6mph /  9.7km/h 9mph /  14.5km/h 36% 0in /  0.0mm 733 W/m2
14:57 71.8 °F /  22.1 °C 42.6 °F /  5.9 °C 29.9in /  1011.5hPa WNW 2mph /  3.2km/h 7mph /  11.3km/h 35% 0in /  0.0mm 729 W/m2
15:02 72.1 °F /  22.3 °C 43 °F /  6.1 °C 29.9in /  1011.5hPa North 4mph /  6.4km/h 11mph /  17.7km/h 35% 0in /  0.0mm 680 W/m2
15:07 72.7 °F /  22.6 °C 43.5 °F /  6.4 °C 29.9in /  1011.5hPa NNW 4.9mph /  7.9km/h 6mph /  9.7km/h 35% 0in /  0.0mm 722 W/m2
15:12 73.2 °F /  22.9 °C 43.2 °F /  6.2 °C 29.9in /  1011.2hPa NW 13mph /  20.9km/h 13mph /  20.9km/h 34% 0in /  0.0mm 715 W/m2
15:17 73.2 °F /  22.9 °C 42.4 °F /  5.8 °C 29.9in /  1011.5hPa NW 10.1mph /  16.3km/h 16mph /  25.7km/h 33% 0in /  0.0mm 705 W/m2
15:22 73.2 °F /  22.9 °C 42.4 °F /  5.8 °C 29.9in /  1011.2hPa West 6.9mph /  11.1km/h 11mph /  17.7km/h 33% 0in /  0.0mm 657 W/m2
15:27 73.2 °F /  22.9 °C 42.4 °F /  5.8 °C 29.9in /  1011.2hPa WSW 8.1mph /  13km/h 15mph /  24.1km/h 33% 0in /  0.0mm 677 W/m2
15:32 73.2 °F /  22.9 °C 43.2 °F /  6.2 °C 29.9in /  1011.2hPa West 8.1mph /  13km/h 12mph /  19.3km/h 34% 0in /  0.0mm 670 W/m2
15:37 73.2 °F /  22.9 °C 44.6 °F /  7 °C 29.9in /  1011.2hPa WSW 8.1mph /  13km/h 10mph /  16.1km/h 36% 0in /  0.0mm 661 W/m2
15:42 73.4 °F /  23 °C 42.6 °F /  5.9 °C 29.9in /  1011.2hPa NW 4mph /  6.4km/h 10mph /  16.1km/h 33% 0in /  0.0mm 649 W/m2
15:47 73.6 °F /  23.1 °C 42.6 °F /  5.9 °C 29.9in /  1011.2hPa NW 4mph /  6.4km/h 10mph /  16.1km/h 33% 0in /  0.0mm 638 W/m2
15:52 73.2 °F /  22.9 °C 43.2 °F /  6.2 °C 29.9in /  1011.2hPa NNW 8.1mph /  13km/h 9mph /  14.5km/h 34% 0in /  0.0mm 621 W/m2
15:57 73 °F /  22.8 °C 43.7 °F /  6.5 °C 29.9in /  1010.8hPa NNW 10.1mph /  16.3km/h 12mph /  19.3km/h 35% 0in /  0.0mm 619 W/m2
16:02 73.4 °F /  23 °C 44.1 °F /  6.7 °C 29.9in /  1010.8hPa WNW 8.1mph /  13km/h 9mph /  14.5km/h 35% 0in /  0.0mm 591 W/m2
16:07 73.2 °F /  22.9 °C 43.9 °F /  6.6 °C 29.9in /  1010.8hPa WSW 2.9mph /  4.7km/h 7mph /  11.3km/h 35% 0in /  0.0mm 605 W/m2
16:12 73 °F /  22.8 °C 44.4 °F /  6.9 °C 29.9in /  1010.8hPa NW 4.9mph /  7.9km/h 11mph /  17.7km/h 36% 0in /  0.0mm 540 W/m2
16:17 73.6 °F /  23.1 °C 44.2 °F /  6.8 °C 29.9in /  1010.8hPa SW 4mph /  6.4km/h 8mph /  12.9km/h 35% 0in /  0.0mm 599 W/m2
16:22 73.9 °F /  23.3 °C 43.9 °F /  6.6 °C 29.9in /  1010.8hPa West 2.9mph /  4.7km/h 13mph /  20.9km/h 34% 0in /  0.0mm 585 W/m2
16:27 73.8 °F /  23.2 °C 43.7 °F /  6.5 °C 29.9in /  1010.8hPa WNW 8.1mph /  13km/h 16mph /  25.7km/h 34% 0in /  0.0mm 452 W/m2
16:32 73 °F /  22.8 °C 43.7 °F /  6.5 °C 29.9in /  1010.8hPa SW 6.9mph /  11.1km/h 10mph /  16.1km/h 35% 0in /  0.0mm 271 W/m2
16:37 72.7 °F /  22.6 °C 43.5 °F /  6.4 °C 29.9in /  1010.8hPa WSW 4.9mph /  7.9km/h 16mph /  25.7km/h 35% 0in /  0.0mm 422 W/m2
16:42 72.7 °F /  22.6 °C 43.5 °F /  6.4 °C 29.9in /  1010.8hPa West 8.1mph /  13km/h 11mph /  17.7km/h 35% 0in /  0.0mm 531 W/m2
16:47 72.9 °F /  22.7 °C 44.4 °F /  6.9 °C 29.8in /  1010.5hPa WNW 2.9mph /  4.7km/h 11mph /  17.7km/h 36% 0in /  0.0mm 452 W/m2
16:52 73.6 °F /  23.1 °C 42.6 °F /  5.9 °C 29.8in /  1010.5hPa WNW 8.9mph /  14.3km/h 10mph /  16.1km/h 33% 0in /  0.0mm 480 W/m2
16:57 73.8 °F /  23.2 °C 43.7 °F /  6.5 °C 29.8in /  1010.5hPa West 6mph /  9.7km/h 11mph /  17.7km/h 34% 0in /  0.0mm 489 W/m2
17:02 73.8 °F /  23.2 °C 42.8 °F /  6 °C 29.8in /  1010.5hPa West 4mph /  6.4km/h 9mph /  14.5km/h 33% 0in /  0.0mm 383 W/m2
17:07 73.8 °F /  23.2 °C 42.8 °F /  6 °C 29.8in /  1010.2hPa WSW 8.1mph /  13km/h 11mph /  17.7km/h 33% 0in /  0.0mm 450 W/m2
17:12 73.6 °F /  23.1 °C 43.5 °F /  6.4 °C 29.8in /  1010.5hPa WSW 8.9mph /  14.3km/h 10mph /  16.1km/h 34% 0in /  0.0mm 480 W/m2
17:17 73.6 °F /  23.1 °C 43.5 °F /  6.4 °C 29.8in /  1010.2hPa WSW 13mph /  20.9km/h 14mph /  22.5km/h 34% 0in /  0.0mm 492 W/m2
17:22 73.6 °F /  23.1 °C 41.9 °F /  5.5 °C 29.8in /  1010.5hPa WNW 4.9mph /  7.9km/h 17mph /  27.4km/h 32% 0in /  0.0mm 468 W/m2
17:27 73.8 °F /  23.2 °C 42.1 °F /  5.6 °C 29.8in /  1010.2hPa WNW 6mph /  9.7km/h 13mph /  20.9km/h 32% 0in /  0.0mm 438 W/m2
17:32 73.8 °F /  23.2 °C 42.1 °F /  5.6 °C 29.8in /  1010.5hPa SW 6mph /  9.7km/h 16mph /  25.7km/h 32% 0in /  0.0mm 475 W/m2
17:37 73.6 °F /  23.1 °C 41.9 °F /  5.5 °C 29.8in /  1010.5hPa West 8.9mph /  14.3km/h 17mph /  27.4km/h 32% 0in /  0.0mm 457 W/m2
17:43 73.2 °F /  22.9 °C 42.4 °F /  5.8 °C 29.8in /  1010.5hPa West 6.9mph /  11.1km/h 9mph /  14.5km/h 33% 0in /  0.0mm 457 W/m2
17:48 73.2 °F /  22.9 °C 41.5 °F /  5.3 °C 29.8in /  1010.2hPa NW 6mph /  9.7km/h 17mph /  27.4km/h 32% 0in /  0.0mm 394 W/m2
17:53 73 °F /  22.8 °C 41.4 °F /  5.2 °C 29.8in /  1010.2hPa WSW 4mph /  6.4km/h 13mph /  20.9km/h 32% 0in /  0.0mm 443 W/m2
17:58 73.2 °F /  22.9 °C 41.5 °F /  5.3 °C 29.8in /  1010.2hPa WSW 4.9mph /  7.9km/h 16mph /  25.7km/h 32% 0in /  0.0mm 413 W/m2
18:03 73 °F /  22.8 °C 41.4 °F /  5.2 °C 29.8in /  1010.2hPa WSW 8.1mph /  13km/h 12mph /  19.3km/h 32% 0in /  0.0mm 415 W/m2
18:08 73 °F /  22.8 °C 41.4 °F /  5.2 °C 29.8in /  1010.2hPa WSW 6.9mph /  11.1km/h 16mph /  25.7km/h 32% 0in /  0.0mm 399 W/m2
18:13 73.2 °F /  22.9 °C 41.5 °F /  5.3 °C 29.8in /  1010.2hPa NW 2.9mph /  4.7km/h 9mph /  14.5km/h 32% 0in /  0.0mm 380 W/m2
18:18 73.4 °F /  23 °C 42.6 °F /  5.9 °C 29.8in /  1010.2hPa WNW 4mph /  6.4km/h 15mph /  24.1km/h 33% 0in /  0.0mm 353 W/m2
18:23 73.4 °F /  23 °C 41.7 °F /  5.4 °C 29.8in /  1010.2hPa NNW 6mph /  9.7km/h 15mph /  24.1km/h 32% 0in /  0.0mm 308 W/m2
18:28 73.2 °F /  22.9 °C 42.4 °F /  5.8 °C 29.8in /  1010.2hPa West 6.9mph /  11.1km/h 10mph /  16.1km/h 33% 0in /  0.0mm 283 W/m2
18:33 73 °F /  22.8 °C 42.3 °F /  5.7 °C 29.8in /  1009.8hPa NW 2.9mph /  4.7km/h 15mph /  24.1km/h 33% 0in /  0.0mm 248 W/m2
18:38 73 °F /  22.8 °C 43 °F /  6.1 °C 29.8in /  1010.2hPa NNW 4.9mph /  7.9km/h 13mph /  20.9km/h 34% 0in /  0.0mm 211 W/m2
18:43 72.3 °F /  22.4 °C 42.4 °F /  5.8 °C 29.8in /  1010.2hPa WSW 8.1mph /  13km/h 12mph /  19.3km/h 34% 0in /  0.0mm 167 W/m2
18:48 71.6 °F /  22 °C 42.4 °F /  5.8 °C 29.8in /  1009.8hPa West 8.1mph /  13km/h 10mph /  16.1km/h 35% 0in /  0.0mm 130 W/m2
18:53 71.4 °F /  21.9 °C 42.3 °F /  5.7 °C 29.8in /  1009.8hPa WNW 4mph /  6.4km/h 9mph /  14.5km/h 35% 0in /  0.0mm 162 W/m2
18:58 71.4 °F /  21.9 °C 42.3 °F /  5.7 °C 29.8in /  1009.8hPa NNW 6mph /  9.7km/h 10mph /  16.1km/h 35% 0in /  0.0mm 186 W/m2
19:03 71.4 °F /  21.9 °C 42.3 °F /  5.7 °C 29.8in /  1009.8hPa West 8.9mph /  14.3km/h 9mph /  14.5km/h 35% 0in /  0.0mm 188 W/m2
19:08 71.2 °F /  21.8 °C 43 °F /  6.1 °C 29.8in /  1009.8hPa WSW 4mph /  6.4km/h 6mph /  9.7km/h 36% 0in /  0.0mm 134 W/m2
19:13 71.1 °F /  21.7 °C 42.8 °F /  6 °C 29.8in /  1009.8hPa WSW 2.9mph /  4.7km/h 6mph /  9.7km/h 36% 0in /  0.0mm 107 W/m2
19:18 70.3 °F /  21.3 °C 42.1 °F /  5.6 °C 29.8in /  1009.8hPa West 4mph /  6.4km/h 9mph /  14.5km/h 36% 0in /  0.0mm 81 W/m2
19:24 70 °F /  21.1 °C 42.4 °F /  5.8 °C 29.8in /  1009.8hPa WSW 4.9mph /  7.9km/h 9mph /  14.5km/h 37% 0in /  0.0mm 74 W/m2
19:29 69.6 °F /  20.9 °C 42.3 °F /  5.7 °C 29.8in /  1009.8hPa West 2mph /  3.2km/h 5mph /  8km/h 37% 0in /  0.0mm 86 W/m2
19:34 69.6 °F /  20.9 °C 42.3 °F /  5.7 °C 29.8in /  1009.8hPa WSW 6.9mph /  11.1km/h 7mph /  11.3km/h 37% 0in /  0.0mm 95 W/m2
19:39 69.4 °F /  20.8 °C 42.8 °F /  6 °C 29.8in /  1009.8hPa West 2mph /  3.2km/h 4mph /  6.4km/h 38% 0in /  0.0mm 74 W/m2
19:44 69.3 °F /  20.7 °C 42.6 °F /  5.9 °C 29.8in /  1009.8hPa West 2.9mph /  4.7km/h 4mph /  6.4km/h 38% 0in /  0.0mm 83 W/m2
19:49 69.3 °F /  20.7 °C 43.2 °F /  6.2 °C 29.8in /  1009.8hPa WSW 2mph /  3.2km/h 4mph /  6.4km/h 39% 0in /  0.0mm 76 W/m2
19:54 68.9 °F /  20.5 °C 43.5 °F /  6.4 °C 29.8in /  1009.8hPa WSW 2.9mph /  4.7km/h 4mph /  6.4km/h 40% 0in /  0.0mm 63 W/m2
19:59 68.7 °F /  20.4 °C 43.3 °F /  6.3 °C 29.8in /  1009.8hPa West 4mph /  6.4km/h 6mph /  9.7km/h 40% 0in /  0.0mm 54 W/m2
20:04 68.4 °F /  20.2 °C 43.2 °F /  6.2 °C 29.8in /  1009.8hPa West 6mph /  9.7km/h 8mph /  12.9km/h 40% 0in /  0.0mm 40 W/m2
20:09 67.8 °F /  19.9 °C 42.6 °F /  5.9 °C 29.8in /  1009.8hPa WNW 2.9mph /  4.7km/h 8mph /  12.9km/h 40% 0in /  0.0mm 35 W/m2
20:14 67.5 °F /  19.7 °C 43 °F /  6.1 °C 29.8in /  1009.8hPa West 4mph /  6.4km/h 6mph /  9.7km/h 41% 0in /  0.0mm 30 W/m2
20:19 66.9 °F /  19.4 °C 42.4 °F /  5.8 °C 29.8in /  1009.8hPa West 6mph /  9.7km/h 9mph /  14.5km/h 41% 0in /  0.0mm 25 W/m2
20:24 66.7 °F /  19.3 °C 43 °F /  6.1 °C 29.8in /  1009.8hPa WNW 4.9mph /  7.9km/h 8mph /  12.9km/h 42% 0in /  0.0mm 19 W/m2
20:29 66.6 °F /  19.2 °C 42.8 °F /  6 °C 29.8in /  1009.8hPa WSW 4mph /  6.4km/h 7mph /  11.3km/h 42% 0in /  0.0mm 16 W/m2
20:34 66.2 °F /  19 °C 43 °F /  6.1 °C 29.8in /  1010.2hPa West 2.9mph /  4.7km/h 8mph /  12.9km/h 43% 0in /  0.0mm 12 W/m2
20:39 65.8 °F /  18.8 °C 42.8 °F /  6 °C 29.8in /  1010.2hPa West 2mph /  3.2km/h 3mph /  4.8km/h 43% 0in /  0.0mm 9 W/m2
20:44 65.5 °F /  18.6 °C 43 °F /  6.1 °C 29.8in /  1010.2hPa West 2.9mph /  4.7km/h 3mph /  4.8km/h 44% 0in /  0.0mm 7 W/m2
20:49 64.9 °F /  18.3 °C 42.4 °F /  5.8 °C 29.8in /  1010.2hPa West 2mph /  3.2km/h 3mph /  4.8km/h 44% 0in /  0.0mm 7 W/m2
20:54 64.8 °F /  18.2 °C 42.3 °F /  5.7 °C 29.8in /  1010.2hPa West 0.9mph /  1.4km/h 4mph /  6.4km/h 44% 0in /  0.0mm 7 W/m2
20:59 64.4 °F /  18 °C 42.1 °F /  5.6 °C 29.8in /  1010.2hPa West 2mph /  3.2km/h 3mph /  4.8km/h 44% 0in /  0.0mm 0 W/m2
21:04 64.2 °F /  17.9 °C 42.4 °F /  5.8 °C 29.8in /  1010.2hPa WNW 2mph /  3.2km/h 3mph /  4.8km/h 45% 0in /  0.0mm 0 W/m2
21:09 63.9 °F /  17.7 °C 42.1 °F /  5.6 °C 29.8in /  1010.2hPa West 0.9mph /  1.4km/h 3mph /  4.8km/h 45% 0in /  0.0mm 0 W/m2
21:14 63.5 °F /  17.5 °C 42.3 °F /  5.7 °C 29.8in /  1010.2hPa West 2mph /  3.2km/h 3mph /  4.8km/h 46% 0in /  0.0mm 0 W/m2
21:19 63.1 °F /  17.3 °C 41.5 °F /  5.3 °C 29.8in /  1010.5hPa West 2.9mph /  4.7km/h 4mph /  6.4km/h 45% 0in /  0.0mm 0 W/m2
21:24 63 °F /  17.2 °C 41.4 °F /  5.2 °C 29.8in /  1010.2hPa West 2mph /  3.2km/h 3mph /  4.8km/h 45% 0in /  0.0mm 0 W/m2
21:29 62.8 °F /  17.1 °C 41.7 °F /  5.4 °C 29.8in /  1010.5hPa WNW 2mph /  3.2km/h 4mph /  6.4km/h 46% 0in /  0.0mm 0 W/m2
21:34 62.8 °F /  17.1 °C 41.7 °F /  5.4 °C 29.8in /  1010.5hPa WSW 2mph /  3.2km/h 2mph /  3.2km/h 46% 0in /  0.0mm 0 W/m2
21:39 62.4 °F /  16.9 °C 41.9 °F /  5.5 °C 29.8in /  1010.5hPa WSW 0.9mph /  1.4km/h 2mph /  3.2km/h 47% 0in /  0.0mm 0 W/m2
21:44 62.2 °F /  16.8 °C 41.2 °F /  5.1 °C 29.8in /  1010.5hPa West 2mph /  3.2km/h 3mph /  4.8km/h 46% 0in /  0.0mm 0 W/m2
21:49 62.1 °F /  16.7 °C 41 °F /  5 °C 29.8in /  1010.5hPa WSW 2mph /  3.2km/h 2mph /  3.2km/h 46% 0in /  0.0mm 0 W/m2
21:54 61.9 °F /  16.6 °C 41.4 °F /  5.2 °C 29.8in /  1010.5hPa West 0.9mph /  1.4km/h 2mph /  3.2km/h 47% 0in /  0.0mm 0 W/m2
21:59 61.5 °F /  16.4 °C 41.2 °F /  5.1 °C 29.9in /  1010.8hPa Calm   2mph /  3.2km/h 47% 0in /  0.0mm 0 W/m2
22:04 61.3 °F /  16.3 °C 41.5 °F /  5.3 °C 29.9in /  1010.8hPa West 0.9mph /  1.4km/h 2mph /  3.2km/h 48% 0in /  0.0mm 0 W/m2
22:09 61 °F /  16.1 °C 41.7 °F /  5.4 °C 29.9in /  1010.8hPa West 0.9mph /  1.4km/h 2mph /  3.2km/h 49% 0in /  0.0mm 0 W/m2
22:14 60.4 °F /  15.8 °C 41.2 °F /  5.1 °C 29.9in /  1010.8hPa West 0.9mph /  1.4km/h 3mph /  4.8km/h 49% 0in /  0.0mm 0 W/m2
22:19 60.4 °F /  15.8 °C 41.2 °F /  5.1 °C 29.9in /  1010.8hPa West 0.9mph /  1.4km/h 3mph /  4.8km/h 49% 0in /  0.0mm 0 W/m2
22:24 60.6 °F /  15.9 °C 41.4 °F /  5.2 °C 29.9in /  1010.8hPa WSW 2mph /  3.2km/h 4mph /  6.4km/h 49% 0in /  0.0mm 0 W/m2
22:29 60.6 °F /  15.9 °C 41.4 °F /  5.2 °C 29.9in /  1010.8hPa West 2mph /  3.2km/h 3mph /  4.8km/h 49% 0in /  0.0mm 0 W/m2
22:34 60.4 °F /  15.8 °C 41.7 °F /  5.4 °C 29.9in /  1010.8hPa West 2mph /  3.2km/h 4mph /  6.4km/h 50% 0in /  0.0mm 0 W/m2
22:39 60.4 °F /  15.8 °C 41.7 °F /  5.4 °C 29.9in /  1010.8hPa West 2mph /  3.2km/h 4mph /  6.4km/h 50% 0in /  0.0mm 0 W/m2
22:44 60.1 °F /  15.6 °C 41.4 °F /  5.2 °C 29.9in /  1010.8hPa West 0.9mph /  1.4km/h 2mph /  3.2km/h 50% 0in /  0.0mm 0 W/m2
22:49 59.9 °F /  15.5 °C 41.7 °F /  5.4 °C 29.9in /  1010.8hPa WSW 2mph /  3.2km/h 5mph /  8km/h 51% 0in /  0.0mm 0 W/m2
22:54 59.5 °F /  15.3 °C 41.9 °F /  5.5 °C 29.9in /  1010.8hPa West 2mph /  3.2km/h 3mph /  4.8km/h 52% 0in /  0.0mm 0 W/m2
22:59 59.5 °F /  15.3 °C 41.9 °F /  5.5 °C 29.9in /  1010.8hPa WSW 0.9mph /  1.4km/h 4mph /  6.4km/h 52% 0in /  0.0mm 0 W/m2
23:04 59.4 °F /  15.2 °C 42.3 °F /  5.7 °C 29.9in /  1010.8hPa WSW 0.9mph /  1.4km/h 3mph /  4.8km/h 53% 0in /  0.0mm 0 W/m2
23:09 59.2 °F /  15.1 °C 42.1 °F /  5.6 °C 29.9in /  1010.8hPa WSW 2mph /  3.2km/h 3mph /  4.8km/h 53% 0in /  0.0mm 0 W/m2
23:14 58.8 °F /  14.9 °C 42.3 °F /  5.7 °C 29.9in /  1010.8hPa WSW 2mph /  3.2km/h 3mph /  4.8km/h 54% 0in /  0.0mm 0 W/m2
23:19 58.6 °F /  14.8 °C 42.4 °F /  5.8 °C 29.9in /  1010.8hPa WSW 0.9mph /  1.4km/h 2mph /  3.2km/h 55% 0in /  0.0mm 0 W/m2
23:24 58.3 °F /  14.6 °C 42.3 °F /  5.7 °C 29.9in /  1010.8hPa West 0.9mph /  1.4km/h 3mph /  4.8km/h 55% 0in /  0.0mm 0 W/m2
23:29 58.3 °F /  14.6 °C 42.3 °F /  5.7 °C 29.9in /  1010.8hPa SW 2.9mph /  4.7km/h 4mph /  6.4km/h 55% 0in /  0.0mm 0 W/m2
23:35 58.1 °F /  14.5 °C 42.1 °F /  5.6 °C 29.9in /  1010.8hPa West 0.9mph /  1.4km/h 3mph /  4.8km/h 55% 0in /  0.0mm 0 W/m2
23:40 57.9 °F /  14.4 °C 41.9 °F /  5.5 °C 29.9in /  1010.8hPa WSW 2mph /  3.2km/h 3mph /  4.8km/h 55% 0in /  0.0mm 0 W/m2
23:45 57.7 °F /  14.3 °C 42.1 °F /  5.6 °C 29.9in /  1010.8hPa WSW 0.9mph /  1.4km/h 2mph /  3.2km/h 56% 0in /  0.0mm 0 W/m2
23:50 57.6 °F /  14.2 °C 42.4 °F /  5.8 °C 29.9in /  1010.8hPa Calm   1mph /  1.6km/h 57% 0in /  0.0mm 0 W/m2
23:55 57.2 °F /  14 °C 42.6 °F /  5.9 °C 29.9in /  1010.8hPa West 0.9mph /  1.4km/h 3mph /  4.8km/h 58% 0in /  0.0mm 0 W/m2
Juneau County Weather
Compliments of Weather Underground - 4 mb